Flight Track Log - Related Links

Times and Time Zones

All times are in EDT time to prevent confusion due to time zone crossing. See the N42591 flight status page for this flight to view local times or setup timezone preferences in your user account.


Time Position Orientation Groundspeed Altitude Reporting Facility
EDT Latitude Longitude Course Direction KTS MPH feet Rate Location/Type
Sun 02:06:16 PM 38.1469 -87.6628 142° Southeast 78 90 1,800  Level Indianapolis Center
Sun 02:07:18 PM 38.1225 -87.6553 166° South 85 98 2,100 387 Climbing Indianapolis Center
Sun 02:08:20 PM 38.1003 -87.6511 172° South 85 98 2,600 537 Climbing Indianapolis Center
Sun 02:09:21 PM 38.0742 -87.6431 166° South 85 98 3,200 390 Climbing Indianapolis Center
Sun 02:10:00 PM 37.8089 -87.4703 174° South  Level FlightAware Approximate
Sun 02:10:23 PM 38.0533 -87.6350 163° South 84 97 3,400  Level Indianapolis Center
Sun 02:11:00 PM 37.7738 -87.4571 142° Southeast  Level FlightAware Approximate
Sun 02:11:25 PM 38.0333 -87.6206 150° Southeast 98 113 3,500  Level Indianapolis Center
Sun 02:12:26 PM 38.0042 -87.6214 181° South 99 114 3,500 49 Level Indianapolis Center
Sun 02:13:28 PM 37.9744 -87.6144 170° South 103 119 3,600 194 Climbing Indianapolis Center
Sun 02:14:30 PM 37.9486 -87.6172 185° South 102 117 3,900 341 Climbing Indianapolis Center
Sun 02:15:31 PM 37.9256 -87.6119 170° South 92 106 4,300 390 Climbing Indianapolis Center
Sun 02:16:33 PM 37.9044 -87.6083 172° South 82 94 4,700 435 Climbing Indianapolis Center
Sun 02:17:35 PM 37.8808 -87.6044 173° South 77 89 5,200 439 Climbing Indianapolis Center
Sun 02:18:36 PM 37.8617 -87.6072 187° South 73 84 5,600 390 Climbing Indianapolis Center
Sun 02:19:38 PM 37.8442 -87.6164 202° Southwest 71 82 6,000 339 Climbing Indianapolis Center
Sun 02:20:40 PM 37.8281 -87.6256 204° Southwest 68 78 6,300 339 Climbing Indianapolis Center
Sun 02:21:42 PM 37.8114 -87.6342 202° Southwest 67 77 6,700 341 Climbing Indianapolis Center
Sun 02:22:43 PM 37.7944 -87.6367 187° South 65 75 7,000 293 Climbing Indianapolis Center
Sun 02:23:45 PM 37.7772 -87.6400 189° South 64 74 7,300 290 Climbing Indianapolis Center
Sun 02:24:47 PM 37.7586 -87.6428 187° South 64 74 7,600 290 Climbing Indianapolis Center
Sun 02:25:49 PM 37.7408 -87.6486 195° South 64 74 7,900 290 Climbing Indianapolis Center
Sun 02:26:51 PM 37.7169 -87.6478 178° South 66 76 8,200 341 Climbing Indianapolis Center
Sun 02:27:52 PM 37.6972 -87.6456 175° South 68 78 8,600 341 Climbing Indianapolis Center
Sun 02:28:54 PM 37.6769 -87.6514 193° South 70 81 8,900 387 Climbing Indianapolis Center
Sun 02:29:56 PM 37.6553 -87.6531 183° South 72 83 9,400 290 Climbing Indianapolis Center
Sun 02:30:58 PM 37.6322 -87.6522 178° South 78 90 9,500 146 Climbing Indianapolis Center
Sun 02:31:59 PM 37.6031 -87.6569 187° South 98 113 9,700 49 Climbing Indianapolis Center
Sun 02:33:01 PM 37.5700 -87.6594 183° South 114 131 9,600 -48 Descending Indianapolis Center
Sun 02:34:03 PM 37.5383 -87.6567 176° South 114 131 9,600  Level Indianapolis Center
Sun 02:35:04 PM 37.4983 -87.6586 182° South 115 132 9,600 -49 Level Indianapolis Center
Sun 02:36:06 PM 37.4653 -87.6553 175° South 116 133 9,500 -97 Descending Indianapolis Center
Sun 02:37:08 PM 37.4314 -87.6528 177° South 118 136 9,400 -49 Descending Indianapolis Center
Sun 02:38:09 PM 37.3978 -87.6517 178° South 119 137 9,400 54 Level Indianapolis Center
Sun 02:38:59 PM 37.3708 -87.6528 182° South 120 138 9,500 54 Climbing Memphis Center
Sun 02:40:01 PM 37.3378 -87.6606 191° South 119 137 9,500  Level Memphis Center
Sun 02:41:03 PM 37.3056 -87.6600 179° South 118 136 9,500  Level Memphis Center
Sun 02:41:28 PM 37.2897 -87.6619 186° South 121 139 9,500 97 Level Memphis Center
Sun 02:42:05 PM 37.2722 -87.6622 181° South 118 136 9,600  Climbing Memphis Center
Sun 02:42:29 PM 37.2561 -87.6611 177° South 115 132 9,500 -97 Descending Memphis Center
Sun 02:43:07 PM 37.2406 -87.6583 172° South 115 132 9,500  Level Memphis Center
Sun 02:43:29 PM 37.2231 -87.6575 178° South 121 139 9,500  Level Memphis Center
Sun 02:44:09 PM 37.2017 -87.6547 174° South 116 133 9,500  Level Memphis Center
Sun 02:44:30 PM 37.1917 -87.6492 156° South 114 131 9,500  Level Memphis Center
Sun 02:45:11 PM 37.1714 -87.6433 167° South 116 133 9,500  Level Memphis Center
Sun 02:45:30 PM 37.1606 -87.6378 158° South 114 131 9,500  Level Memphis Center
Sun 02:46:13 PM 37.1436 -87.6214 142° Southeast 116 133 9,500  Level Memphis Center
Sun 02:46:31 PM 37.1381 -87.6114 125° Southeast 115 132 9,500  Level Memphis Center
Sun 02:47:15 PM 37.1236 -87.5900 130° Southeast 115 132 9,500  Level Memphis Center
Sun 02:47:32 PM 37.1133 -87.5847 158° South 117 135 9,500  Level Memphis Center
Sun 02:48:16 PM 37.0919 -87.5728 156° South 117 135 9,500  Level Memphis Center
Sun 02:48:32 PM 37.0825 -87.5708 171° South 122 140 9,500  Level Memphis Center
Sun 02:49:18 PM 37.0564 -87.5711 180° South 122 140 9,500  Level Memphis Center
Sun 02:49:39 PM 37.0428 -87.5700 176° South 126 145 9,500  Level Memphis Center
Sun 02:50:20 PM 37.0228 -87.5636 166° South 122 140 9,500  Level Memphis Center
Sun 02:50:40 PM 37.0094 -87.5589 164° South 122 140 9,500  Level Memphis Center
Sun 02:51:22 PM 36.9894 -87.5536 168° South 122 140 9,500  Level Memphis Center
Sun 02:51:40 PM 36.9761 -87.5528 177° South 123 142 9,500  Level Memphis Center
Sun 02:52:24 PM 36.9544 -87.5483 171° South 122 140 9,500  Level Memphis Center
Sun 02:52:41 PM 36.9389 -87.5469 176° South 127 146 9,500  Level Memphis Center
Sun 02:53:26 PM 36.9136 -87.5439 174° South 125 144 9,500  Level Memphis Center
Sun 02:53:41 PM 36.9075 -87.5408 158° South 124 143 9,500  Level Memphis Center
Sun 02:54:28 PM 36.8794 -87.5372 174° South 124 143 9,500  Level Memphis Center
Sun 02:54:42 PM 36.8722 -87.5350 166° South 122 140 9,500  Level Memphis Center
Sun 02:55:30 PM 36.8453 -87.5242 162° South 125 144 9,500  Level Memphis Center
Sun 02:56:32 PM 36.8114 -87.5061 157° South 127 146 9,500  Level Memphis Center
Sun 02:57:38 PM 36.7747 -87.4833 154° Southeast 132 152 9,500  Level Memphis Center
Sun 02:58:36 PM 36.7464 -87.4631 150° Southeast 129 148 9,500  Level Memphis Center
Sun 02:59:38 PM 36.7150 -87.4381 147° Southeast 129 148 9,500 48 Level Memphis Center
Sun 03:00:40 PM 36.6828 -87.4169 152° Southeast 129 148 9,600 48 Climbing Memphis Center
Sun 03:01:42 PM 36.6522 -87.3908 146° Southeast 130 150 9,600 -48 Level Memphis Center
Sun 03:02:44 PM 36.6175 -87.3619 146° Southeast 130 150 9,500 -49 Descending Memphis Center
Sun 03:03:45 PM 36.5858 -87.3422 153° Southeast 129 148 9,500 -49 Level Memphis Center
Sun 03:04:47 PM 36.5531 -87.3225 154° Southeast 129 148 9,400 -48 Descending Memphis Center
Sun 03:05:49 PM 36.5225 -87.3044 155° Southeast 125 144 9,400 48 Level Memphis Center
Sun 03:06:51 PM 36.4933 -87.2839 150° Southeast 124 143 9,500  Climbing Memphis Center
Sun 03:07:53 PM 36.4631 -87.2739 165° South 115 132 9,400  Descending Memphis Center
Sun 03:08:55 PM 36.4342 -87.2633 164° South 112 129 9,500 48 Climbing Memphis Center
Sun 03:09:57 PM 36.4058 -87.2533 164° South 107 123 9,500  Level Memphis Center
Sun 03:10:59 PM 36.3708 -87.2419 165° South 107 123 9,500  Level Memphis Center
Sun 03:12:01 PM 36.3394 -87.2314 165° South 110 127 9,500 97 Level Memphis Center
Sun 03:13:03 PM 36.3086 -87.2206 164° South 111 128 9,700  Climbing Memphis Center
Sun 03:14:05 PM 36.2756 -87.2114 167° South 116 133 9,500 -97 Descending Memphis Center
Sun 03:15:07 PM 36.2433 -87.2119 181° South 116 133 9,500  Level Memphis Center
Sun 03:16:09 PM 36.2128 -87.2147 184° South 115 132 9,500  Level Memphis Center
Sun 03:17:11 PM 36.1831 -87.2111 174° South 111 128 9,500 48 Level Memphis Center
Sun 03:18:13 PM 36.1519 -87.2097 178° South 111 128 9,600  Climbing Memphis Center
Sun 03:19:15 PM 36.1169 -87.2047 173° South 110 127 9,500 -48 Descending Memphis Center
Sun 03:20:17 PM 36.0858 -87.2011 175° South 110 127 9,500  Level Memphis Center
Sun 03:21:19 PM 36.0553 -87.1969 174° South 110 127 9,500 48 Level Memphis Center
Sun 03:22:21 PM 36.0250 -87.1917 172° South 110 127 9,600  Climbing Memphis Center
Sun 03:23:23 PM 35.9958 -87.1839 168° South 109 125 9,500 -48 Descending Memphis Center
Sun 03:24:25 PM 35.9686 -87.1572 142° Southeast 116 133 9,500 -145 Level Memphis Center
Sun 03:25:27 PM 35.9339 -87.1261 144° Southeast 127 146 9,200 -290 Descending Memphis Center
Sun 03:26:29 PM 35.9069 -87.0942 136° Southeast 131 151 8,900 -145 Descending Memphis Center
Sun 03:27:31 PM 35.8806 -87.0714 145° Southeast 124 143 8,900 48 Level Memphis Center
Sun 03:28:33 PM 35.8525 -87.0706 179° South 103 119 9,000 194 Climbing Memphis Center
Sun 03:29:35 PM 35.8331 -87.0361 125° Southeast 119 137 9,300 194 Climbing Memphis Center
Sun 03:30:37 PM 35.8128 -87.0014 126° Southeast 121 139 9,400 145 Climbing Memphis Center
Sun 03:31:39 PM 35.7886 -86.9800 144° Southeast 113 130 9,600 97 Climbing Memphis Center
Sun 03:32:41 PM 35.7569 -86.9664 161° South 106 122 9,600 -48 Level Memphis Center
Sun 03:33:44 PM 35.7281 -86.9581 167° South 106 122 9,500 -48 Descending Memphis Center
Sun 03:34:46 PM 35.6983 -86.9508 169° South 106 122 9,500  Level Memphis Center
Sun 03:35:48 PM 35.6708 -86.9506 180° South 105 121 9,500 -48 Level Memphis Center
Sun 03:36:50 PM 35.6458 -86.9575 193° South 94 108 9,400 -48 Descending Memphis Center
Sun 03:37:52 PM 35.6228 -86.9703 204° Southwest 93 107 9,400  Level Memphis Center
Sun 03:38:54 PM 35.6008 -86.9842 207° Southwest 92 106 9,400  Level Memphis Center
Sun 03:39:56 PM 35.5700 -86.9908 190° South 92 106 9,400 48 Level Memphis Center
Sun 03:40:58 PM 35.5419 -86.9839 169° South 96 110 9,500 48 Climbing Memphis Center
Sun 03:42:00 PM 35.5117 -86.9747 166° South 105 121 9,500  Level Memphis Center
Sun 03:43:02 PM 35.4844 -86.9750 180° South 104 120 9,500  Level Memphis Center
Sun 03:44:04 PM 35.4575 -86.9722 175° South 97 112 9,500  Level Memphis Center
Sun 03:45:06 PM 35.4325 -86.9808 196° South 96 110 9,500  Level Memphis Center
Sun 03:46:08 PM 35.4050 -86.9756 171° South 96 110 9,500  Level Memphis Center
Sun 03:47:10 PM 35.3747 -86.9744 178° South 96 110 9,500 -48 Level Memphis Center
Sun 03:48:12 PM 35.3467 -86.9731 178° South 97 112 9,400 -97 Descending Memphis Center
Sun 03:49:14 PM 35.3189 -86.9694 174° South 98 113 9,300 -48 Descending Memphis Center
Sun 03:50:16 PM 35.2983 -86.9867 214° Southwest 94 108 9,300  Level Memphis Center
Sun 03:51:18 PM 35.2747 -86.9894 185° South 90 104 9,300 -97 Level Memphis Center
Sun 03:52:20 PM 35.2453 -86.9619 143° Southeast 104 120 9,100 -48 Descending Memphis Center
Sun 03:53:22 PM 35.2211 -86.9375 140° Southeast 109 125 9,200 -49 Climbing Memphis Center
Sun 03:54:23 PM 35.1975 -86.9136 140° Southeast 124 143 9,000  Descending Memphis Center
Sun 03:55:25 PM 35.1711 -86.8956 151° Southeast 116 133 9,200 145 Climbing Memphis Center
Sun 03:56:27 PM 35.1442 -86.8797 154° Southeast 110 127 9,300 145 Climbing Memphis Center
Sun 03:57:29 PM 35.1178 -86.8633 153° Southeast 107 123 9,500 97 Climbing Memphis Center
Sun 03:58:31 PM 35.0833 -86.8447 156° South 109 125 9,500 48 Level Memphis Center
Sun 03:59:33 PM 35.0553 -86.8253 150° Southeast 111 128 9,600  Climbing Memphis Center
Sun 04:00:35 PM 35.0256 -86.8131 161° South 112 129 9,500 -48 Descending Memphis Center
Sun 04:01:37 PM 34.9947 -86.8106 176° South 113 130 9,500 -97 Level Memphis Center
Sun 04:02:39 PM 34.9661 -86.8156 188° South 108 124 9,300 -435 Descending Memphis Center
Sun 04:03:41 PM 34.9350 -86.8208 188° South 109 125 8,600 -726 Descending Memphis Center
Sun 04:04:43 PM 34.9036 -86.8083 162° South 129 148 7,800 -629 Descending Memphis Center
Sun 04:05:45 PM 34.8658 -86.7736 143° Southeast 139 160 7,300 -677 Descending Memphis Center
Sun 04:06:47 PM 34.8336 -86.7750 182° South 138 159 6,400 -823 Descending Memphis Center
Sun 04:07:49 PM 34.7986 -86.7850 193° South 132 152 5,600 -823 Descending Memphis Center
Sun 04:08:51 PM 34.7606 -86.7919 189° South 132 152 4,700 -339 Descending Memphis Center
Sun 04:09:53 PM 34.7267 -86.7850 170° South 130 150 4,900 293 Climbing Memphis Center
Sun 04:10:54 PM 34.6989 -86.7753 164° South 117 135 5,300 341 Climbing Memphis Center
Sun 04:11:56 PM 34.6664 -86.7686 170° South 106 122 5,600 97 Climbing Memphis Center
Sun 04:12:58 PM 34.6342 -86.7731 186° South 109 125 5,500 -194 Descending Memphis Center
Sun 04:14:00 PM 34.6072 -86.7931 211° Southwest 112 129 5,200 -581 Descending Memphis Center
Sun 04:15:02 PM 34.5769 -86.8142 210° Southwest 115 132 4,300 -871 Descending Memphis Center
Sun 04:16:04 PM 34.5353 -86.8217 188° South 135 155 3,400 -435 Descending Memphis Center
Sun 04:17:06 PM 34.4964 -86.8200 178° South 144 166 3,400 49 Level Memphis Center
Sun 04:18:07 PM 34.4711 -86.7967 143° Southeast 132 152 3,500 98 Climbing Memphis Center
Sun 04:19:09 PM 34.4456 -86.7575 128° Southeast 129 148 3,600 97 Climbing Memphis Center
Sun 04:20:11 PM 34.4164 -86.7433 158° South 118 136 3,700 194 Climbing Memphis Center
Sun 04:21:13 PM 34.3858 -86.7331 164° South 117 135 4,000 242 Climbing Memphis Center
Sun 04:22:15 PM 34.3575 -86.7308 176° South 110 127 4,200 145 Climbing Memphis Center
Sun 04:23:17 PM 34.3283 -86.7261 172° South 108 124 4,300 194 Climbing Memphis Center
Sun 04:24:19 PM 34.2989 -86.7228 175° South 108 124 4,600 194 Climbing Memphis Center
Sun 04:25:21 PM 34.2681 -86.7161 170° South 108 124 4,700 390 Climbing Memphis Center
Sun 04:26:22 PM 34.2336 -86.7103 172° South 108 124 5,400 634 Climbing Memphis Center
Sun 04:27:24 PM 34.2056 -86.6989 161° South 108 124 6,000 387 Climbing Memphis Center
Sun 04:28:26 PM 34.1822 -86.6725 137° Southeast 114 131 6,200 250 Climbing Memphis Center
Sun 04:30:12 PM 34.1322 -86.6286 144° Southeast 115 132 6,700 195 Climbing Atlanta Center
Sun 04:30:29 PM 34.1325 -86.6236 86° East 116 133 6,600 300 Descending Atlanta Center
Sun 04:31:12 PM 34.1097 -86.6081 151° Southeast 112 129 7,000 400 Climbing Atlanta Center
Sun 04:31:29 PM 34.1078 -86.6003 107° East 116 133 7,000 234 Level Atlanta Center
Sun 04:32:29 PM 34.0811 -86.5819 150° Southeast 116 133 7,300 250 Climbing Atlanta Center
Sun 04:33:29 PM 34.0542 -86.5661 154° Southeast 116 133 7,500 216 Climbing Atlanta Center
Sun 04:34:20 PM 34.0272 -86.5578 166° South 102 117 7,700 268 Climbing Atlanta Center
Sun 04:35:21 PM 33.9961 -86.5469 164° South 104 120 8,000 298 Climbing Atlanta Center
Sun 04:36:21 PM 33.9694 -86.5361 161° South 105 121 8,300 298 Climbing Atlanta Center
Sun 04:37:22 PM 33.9425 -86.5278 166° South 103 119 8,600 328 Climbing Atlanta Center
Sun 04:38:29 PM 33.9114 -86.5169 164° South 103 119 9,000 298 Climbing Atlanta Center
Sun 04:39:23 PM 33.8864 -86.5111 169° South 104 120 9,200 261 Climbing Atlanta Center
Sun 04:40:24 PM 33.8572 -86.5053 171° South 102 117 9,500 141 Climbing Atlanta Center
Sun 04:41:31 PM 33.8197 -86.4992 172° South 120 138 9,500  Level Atlanta Center
Sun 04:42:31 PM 33.7886 -86.4958 175° South 115 132 9,500 -50 Level Atlanta Center
Sun 04:43:32 PM 33.7572 -86.5025 190° South 113 130 9,400  Descending Atlanta Center
Sun 04:44:32 PM 33.7239 -86.4964 171° South 124 143 9,500 50 Climbing Atlanta Center
Sun 04:45:33 PM 33.6947 -86.4906 171° South 116 133 9,500  Level Atlanta Center
Sun 04:46:34 PM 33.6681 -86.4625 139° Southeast 133 153 9,500  Level Atlanta Center
Sun 04:47:34 PM 33.6392 -86.4442 152° Southeast 118 136 9,500  Level Atlanta Center
Sun 04:48:35 PM 33.6081 -86.4358 167° South 113 130 9,500 52 Level Atlanta Center
Sun 04:49:29 PM 33.5789 -86.4325 175° South 113 130 9,600 104 Climbing Atlanta Center
Sun 04:50:30 PM 33.5456 -86.4317 179° South 119 137 9,700  Climbing Atlanta Center
Sun 04:51:31 PM 33.5144 -86.4283 175° South 120 138 9,600 -99 Descending Atlanta Center
Sun 04:52:31 PM 33.4792 -86.4197 168° South 127 146 9,500 -50 Descending Atlanta Center
Sun 04:53:32 PM 33.4458 -86.4089 165° South 130 150 9,500  Level Atlanta Center
Sun 04:54:32 PM 33.4083 -86.4028 172° South 124 143 9,500  Level Atlanta Center
Sun 04:55:33 PM 33.3731 -86.3944 169° South 126 145 9,500  Level Atlanta Center
Sun 04:56:28 PM 33.3417 -86.3936 179° South 125 144 9,500 -52 Level Atlanta Center
Sun 04:57:28 PM 33.3083 -86.3928 179° South 121 139 9,400 -17 Descending Atlanta Center
Sun 05:02:16 PM 33.1464 -86.3511 171° South 115 132 9,400 -45 Level Atlanta Center
Sun 05:06:17 PM 33.0286 -86.4000 171° South 120 138 9,000 -12 Descending Atlanta Center
Sun 05:10:17 PM 32.9231 -86.4592 162° South 105 121 9,300 59 Climbing Atlanta Center
Sun 05:14:42 PM 32.7872 -86.4750 162° South 126 145 9,500 12 Climbing Atlanta Center
Sun 05:18:42 PM 32.6547 -86.5133 166° South 128 147 9,400 -12 Descending Atlanta Center
Sun 05:22:43 PM 32.5244 -86.5542 162° South 127 146 9,400 13 Level Atlanta Center
Sun 05:26:19 PM 32.3953 -86.5503 163° South 129 148 9,500 Climbing Atlanta Center
Sun 05:34:20 PM 32.1047 -86.4661 162° South 142 163 9,500 -20 Level Atlanta Center
Sun 05:35:00 PM 32.1395 -86.4536 162° South  Level Estimated
Sun 05:36:00 PM 32.1100 -86.4425 162° South  Level Estimated
Sun 05:36:20 PM 32.0361 -86.4167 149° Southeast 137 158 9,300  Level Jacksonville Center
Sun 05:36:56 PM 32.0153 -86.4108 167° South 132 152 9,400 124 Climbing Jacksonville Center
Sun 05:37:00 PM 32.0805 -86.4314 162° South  Level Estimated
Sun 05:37:57 PM 31.9781 -86.3997 166° South 131 151 9,500  Level Jacksonville Center
Sun 05:38:00 PM 32.0510 -86.4203 162° South  Level Estimated
Sun 05:38:57 PM 31.9431 -86.3861 162° South 136 157 9,500  Level Jacksonville Center
Sun 05:39:00 PM 32.0216 -86.4092 162° South  Level Estimated
Sun 05:39:52 PM 31.9100 -86.3750 164° South 137 158 9,400  Level Jacksonville Center
Sun 05:40:52 PM 31.8750 -86.3542 153° Southeast 135 155 9,500 50 Climbing Jacksonville Center
Sun 05:41:53 PM 31.8400 -86.3333 153° Southeast 134 154 9,500  Level Jacksonville Center
Sun 05:42:54 PM 31.8092 -86.3150 153° Southeast 138 159 9,500  Level Jacksonville Center
Sun 05:43:54 PM 31.7744 -86.2869 146° Southeast 144 166 9,500 -50 Level Jacksonville Center
Sun 05:44:55 PM 31.7397 -86.2661 153° Southeast 140 161 9,400  Descending Jacksonville Center
Sun 05:45:55 PM 31.7047 -86.2428 150° Southeast 138 159 9,500 -50 Climbing Jacksonville Center
Sun 05:46:56 PM 31.6761 -86.2175 143° Southeast 136 157 9,300 -98 Descending Jacksonville Center
Sun 05:47:57 PM 31.6433 -86.1967 152° Southeast 132 152 9,300 104 Level Jacksonville Center
Sun 05:48:51 PM 31.6125 -86.1811 157° South 129 148 9,500 110 Climbing Jacksonville Center
Sun 05:49:46 PM 31.5794 -86.1653 158° South 131 151 9,500  Level Jacksonville Center
Sun 05:50:46 PM 31.5486 -86.1494 156° South 133 153 9,500  Level Jacksonville Center
Sun 05:51:47 PM 31.5114 -86.1311 157° South 135 155 9,500  Level Jacksonville Center
Sun 05:52:47 PM 31.4783 -86.1128 155° Southeast 135 155 9,500  Level Jacksonville Center
Sun 05:53:48 PM 31.4414 -86.0922 155° Southeast 136 157 9,500  Level Jacksonville Center
Sun 05:54:49 PM 31.4106 -86.0717 150° Southeast 135 155 9,500 -50 Level Jacksonville Center
Sun 05:55:49 PM 31.3778 -86.0511 152° Southeast 135 155 9,400 -50 Descending Jacksonville Center
Sun 05:56:50 PM 31.3428 -86.0303 153° Southeast 140 161 9,400 -50 Level Jacksonville Center
Sun 05:57:50 PM 31.3075 -86.0169 162° South 134 154 9,300 50 Descending Jacksonville Center
Sun 05:58:51 PM 31.2722 -86.0133 175° South 121 139 9,500 197 Climbing Jacksonville Center
Sun 05:59:52 PM 31.2408 -86.0125 179° South 117 135 9,700 94 Climbing Jacksonville Center
Sun 06:00:58 PM 31.2033 -86.0086 175° South 121 139 9,700 94 Level Jacksonville Center
Sun 06:01:59 PM 31.1658 -86.0050 175° South 128 147 9,900 94 Climbing Jacksonville Center
Sun 06:03:06 PM 31.1242 -85.9989 173° South 131 151 9,900 -94 Level Jacksonville Center
Sun 06:04:06 PM 31.0867 -85.9953 175° South 142 163 9,700 -189 Descending Jacksonville Center
Sun 06:05:13 PM 31.0433 -85.9842 168° South 141 162 9,500 -338 Descending Jacksonville Center
Sun 06:06:46 PM 30.9914 -85.9703 167° South 145 167 8,800 -588 Descending Jacksonville Center
Sun 06:07:46 PM 30.9561 -85.9594 165° South 140 161 8,000 -650 Descending Jacksonville Center
Sun 06:08:46 PM 30.9231 -85.9511 168° South 134 154 7,500 -650 Descending Jacksonville Center
Sun 06:09:46 PM 30.8897 -85.9428 168° South 129 148 6,700 -750 Descending Jacksonville Center
Sun 06:10:46 PM 30.8564 -85.9367 171° South 124 143 6,000 -600 Descending Jacksonville Center
Sun 06:11:46 PM 30.8233 -85.9286 168° South 124 143 5,500 -600 Descending Jacksonville Center
Sun 06:12:46 PM 30.7922 -85.9225 170° South 124 143 4,800 -650 Descending Jacksonville Center
Sun 06:13:46 PM 30.7608 -85.9167 171° South 124 143 4,200 -600 Descending Jacksonville Center
Sun 06:14:46 PM 30.7278 -85.9086 168° South 124 143 3,600 -350 Descending Jacksonville Center
Sun 06:15:46 PM 30.6944 -85.9025 171° South 124 143 3,500 -100 Descending Jacksonville Center

Login

Don't have an account? Register now (free) for customized features, flight alerts, and more!